Terminal Aerodrome Forecast
Issued by NWS Charleston, WV

Current Version | Previous Version | Text Only | Print | Product List | Glossary Off
Versions: 1 2 3 4 5 6 7 8 9 10 11 12 13 14 15 16 17 18 19 20 21 22

000
FTUS41 KRLX 282344
TAFHTS
TAF
KHTS 282344Z 2900/2924 00000KT P6SM FEW050
     FM290100 00000KT P6SM SCT250
     FM290500 00000KT 4SM BR SCT250
     FM290600 00000KT 2SM BR FEW050
     FM291300 00000KT 3SM BR FEW050
     FM291400 VRB03KT P6SM FEW050=

USA.gov is the U.S. government's official web portal to all federal, state and local government web resources and services.